Time;durP1;ratioP1;P1;durP2;ratioP2;P2;SDS_P1;SDS_P2;PMS_P1;PMS_P2;Temp;Humidity;BMP_temperature;BMP_pressure;BME280_temperature;BME280_humidity;BME280_pressure;Samples;Min_cycle;Max_cycle;Signal;HPM_P1;HPM_P2
2022/11/21 00:01:19;;;;;;;3.37;0.70;;;23.30;32.60;;;;;;5049627;28;20195;-69
2022/11/21 00:03:46;;;;;;;3.43;1.00;;;23.20;33.40;;;;;;5034172;28;20173;-68
2022/11/21 00:06:14;;;;;;;2.97;0.80;;;23.20;33.30;;;;;;5042179;28;20176;-67
2022/11/21 00:08:42;;;;;;;5.00;1.00;;;23.00;33.40;;;;;;5052270;28;20680;-71
2022/11/21 00:11:09;;;;;;;4.40;1.00;;;23.30;32.80;;;;;;5055601;28;20240;-71
2022/11/21 00:13:37;;;;;;;3.87;1.00;;;23.60;32.20;;;;;;5040452;28;20556;-67
2022/11/21 00:16:10;;;;;;;2.90;0.93;;;23.30;32.20;;;;;;5048491;28;20711;-69
2022/11/21 00:18:38;;;;;;;2.80;0.90;;;23.40;32.40;;;;;;5033316;28;20263;-68
2022/11/21 00:21:15;;;;;;;5.43;0.60;;;23.20;32.20;;;;;;5047662;28;20263;-67
2022/11/21 00:23:43;;;;;;;2.10;0.80;;;23.30;31.60;;;;;;5046032;28;20194;-67
2022/11/21 00:26:13;;;;;;;4.03;0.73;;;23.30;32.10;;;;;;5047211;28;20175;-68
2022/11/21 00:28:41;;;;;;;5.43;0.80;;;23.70;31.40;;;;;;5046929;28;20846;-68
2022/11/21 00:31:08;;;;;;;3.43;0.60;;;24.00;30.80;;;;;;5046253;28;20590;-67
2022/11/21 00:33:37;;;;;;;6.60;0.80;;;24.00;29.80;;;;;;5046523;28;20215;-68
2022/11/21 00:36:08;;;;;;;5.43;0.80;;;24.20;29.90;;;;;;5043042;28;20177;-69
2022/11/21 00:38:36;;;;;;;6.50;0.83;;;24.00;30.40;;;;;;5031421;28;20180;-71
2022/11/21 00:41:04;;;;;;;6.20;0.80;;;24.10;30.00;;;;;;5030517;28;20211;-68
2022/11/21 00:43:32;;;;;;;2.00;0.70;;;23.80;30.00;;;;;;5031246;28;20212;-70
2022/11/21 00:46:01;;;;;;;4.00;0.60;;;23.50;30.60;;;;;;5031276;28;20232;-69
2022/11/21 00:48:30;;;;;;;4.87;1.37;;;24.00;29.90;;;;;;5037575;28;20195;-69
2022/11/21 00:50:59;;;;;;;2.10;0.83;;;23.90;29.90;;;;;;5052763;28;20168;-69
2022/11/21 00:53:26;;;;;;;1.80;0.60;;;23.90;29.40;;;;;;5035940;28;20668;-67
2022/11/21 00:55:54;;;;;;;10.30;0.90;;;24.10;29.10;;;;;;5041696;28;20180;-68
2022/11/21 00:58:21;;;;;;;6.70;1.20;;;23.80;29.90;;;;;;5050411;28;20279;-67
2022/11/21 01:00:49;;;;;;;4.57;1.20;;;24.00;29.70;;;;;;5038150;28;20191;-69
2022/11/21 01:03:16;;;;;;;3.17;0.70;;;24.00;29.80;;;;;;5047176;28;20198;-70
2022/11/21 01:05:44;;;;;;;5.07;0.90;;;24.40;29.30;;;;;;5045760;28;20172;-68
2022/11/21 01:08:12;;;;;;;3.23;0.70;;;24.30;29.00;;;;;;5049391;28;20210;-68
2022/11/21 01:10:39;;;;;;;2.73;0.93;;;24.10;29.70;;;;;;5051640;28;20192;-70
2022/11/21 01:13:06;;;;;;;1.77;0.80;;;24.30;30.20;;;;;;5050890;28;20199;-70
2022/11/21 01:15:34;;;;;;;2.73;0.63;;;24.50;29.20;;;;;;5053149;28;20222;-67
2022/11/21 01:18:01;;;;;;;5.80;0.80;;;23.80;29.70;;;;;;5046336;28;20215;-68
2022/11/21 01:20:29;;;;;;;3.50;0.80;;;23.30;30.60;;;;;;5047259;28;20688;-67
2022/11/21 01:22:56;;;;;;;3.63;0.87;;;23.50;29.70;;;;;;5051747;28;20310;-66
2022/11/21 01:25:24;;;;;;;1.57;0.70;;;23.10;30.70;;;;;;5048796;28;20237;-68
2022/11/21 01:27:51;;;;;;;7.77;1.20;;;23.40;30.40;;;;;;5048421;28;20207;-67
2022/11/21 01:30:18;;;;;;;1.17;0.70;;;23.40;30.40;;;;;;5043488;28;20191;-68
2022/11/21 01:32:49;;;;;;;1.83;0.70;;;23.60;29.70;;;;;;5046958;28;20208;-69
2022/11/21 01:35:17;;;;;;;4.27;0.80;;;23.60;30.40;;;;;;5048735;28;20187;-68
2022/11/21 01:37:47;;;;;;;7.53;0.83;;;23.60;30.40;;;;;;5050575;28;20277;-70
2022/11/21 01:40:15;;;;;;;3.87;0.87;;;23.60;30.60;;;;;;5045670;28;20206;-68
2022/11/21 01:42:51;;;;;;;1.87;0.70;;;24.10;29.50;;;;;;5040031;28;20181;-68
2022/11/21 01:45:55;;;;;;;1.50;0.60;;;24.20;29.40;;;;;;5049835;28;20220;-67
2022/11/21 01:48:43;;;;;;;3.90;0.60;;;23.70;30.10;;;;;;5050586;28;20262;-68
2022/11/21 01:51:27;;;;;;;2.10;0.70;;;23.70;30.70;;;;;;5050005;28;20509;-68
2022/11/21 01:54:36;;;;;;;1.27;0.53;;;23.60;31.50;;;;;;5049100;28;20211;-69
2022/11/21 01:57:12;;;;;;;2.37;0.67;;;24.10;30.20;;;;;;5049364;28;20543;-70
2022/11/21 01:59:55;;;;;;;2.70;0.63;;;24.30;30.00;;;;;;5049943;28;20198;-67
2022/11/21 02:02:27;;;;;;;2.00;0.40;;;24.80;28.80;;;;;;5050642;28;20203;-70
2022/11/21 02:04:56;;;;;;;3.40;0.57;;;24.30;29.20;;;;;;5044250;28;20546;-69
2022/11/21 02:07:25;;;;;;;2.53;0.70;;;24.30;29.90;;;;;;5049484;28;20188;-67
2022/11/21 02:09:56;;;;;;;4.47;0.90;;;23.40;31.10;;;;;;5052744;28;20210;-69
2022/11/21 02:12:36;;;;;;;3.13;0.80;;;23.30;31.60;;;;;;5051556;28;20180;-70
2022/11/21 02:15:04;;;;;;;1.73;0.63;;;23.60;31.50;;;;;;5051964;28;20171;-68
2022/11/21 02:17:32;;;;;;;4.00;0.73;;;24.40;30.70;;;;;;5051768;28;20180;-71
2022/11/21 02:20:06;;;;;;;6.30;1.50;;;24.10;31.30;;;;;;5053968;28;20173;-69
2022/11/21 02:23:01;;;;;;;6.03;1.03;;;24.00;30.50;;;;;;5045468;28;20180;-68
2022/11/21 02:25:31;;;;;;;6.97;1.10;;;23.10;31.90;;;;;;5044056;28;20267;-67
2022/11/21 02:28:06;;;;;;;1.77;0.60;;;22.90;32.90;;;;;;5045019;28;20176;-68
2022/11/21 02:30:37;;;;;;;5.93;0.70;;;23.20;32.30;;;;;;5055617;28;20207;-69
2022/11/21 02:33:04;;;;;;;3.03;0.70;;;23.60;31.00;;;;;;5048520;28;20208;-68
2022/11/21 02:35:32;;;;;;;8.27;0.80;;;23.50;31.50;;;;;;5051116;28;20210;-68
2022/11/21 02:38:27;;;;;;;3.50;0.80;;;23.30;31.20;;;;;;5052481;28;20259;-68
2022/11/21 02:41:06;;;;;;;1.90;0.53;;;23.10;30.70;;;;;;5052853;28;20268;-68
2022/11/21 02:43:50;;;;;;;3.57;0.83;;;23.30;30.10;;;;;;5051832;28;20184;-69
2022/11/21 02:46:17;;;;;;;3.27;0.60;;;23.30;30.50;;;;;;5049522;28;20551;-67
2022/11/21 02:48:46;;;;;;;3.53;0.67;;;23.40;30.40;;;;;;5053388;28;20196;-68
2022/11/21 02:51:13;;;;;;;3.13;0.70;;;23.50;30.10;;;;;;5050625;28;20183;-72
2022/11/21 02:53:40;;;;;;;2.37;0.57;;;23.70;30.20;;;;;;5051492;28;20627;-72
2022/11/21 02:56:08;;;;;;;1.43;0.77;;;23.90;29.80;;;;;;5052014;28;20631;-70
2022/11/21 02:58:35;;;;;;;0.80;0.63;;;23.60;30.10;;;;;;5050990;28;20315;-68
2022/11/21 03:01:02;;;;;;;3.53;0.70;;;23.80;29.90;;;;;;5048445;28;20180;-69
2022/11/21 03:03:30;;;;;;;2.47;0.70;;;23.10;30.50;;;;;;5052915;28;20184;-69
2022/11/21 03:05:57;;;;;;;0.80;0.43;;;23.20;30.80;;;;;;5044254;28;20636;-70
2022/11/21 03:08:25;;;;;;;2.80;0.60;;;23.60;30.10;;;;;;5044570;28;20210;-68
2022/11/21 03:10:52;;;;;;;4.70;0.70;;;23.80;29.50;;;;;;5042398;28;20661;-68
2022/11/21 03:13:20;;;;;;;3.23;0.70;;;23.30;29.40;;;;;;5034376;28;20212;-68
2022/11/21 03:15:47;;;;;;;4.37;0.67;;;23.30;30.00;;;;;;5036235;28;20199;-69
2022/11/21 03:18:14;;;;;;;1.57;0.70;;;23.30;29.60;;;;;;5051345;28;20203;-68
2022/11/21 03:20:42;;;;;;;2.30;0.77;;;24.00;28.40;;;;;;5046555;28;20255;-69
2022/11/21 03:23:09;;;;;;;3.40;0.50;;;23.80;29.00;;;;;;5044336;28;20173;-71
2022/11/21 03:25:36;;;;;;;3.33;0.60;;;23.80;28.50;;;;;;5049782;28;20186;-69
2022/11/21 03:28:04;;;;;;;4.43;0.63;;;23.70;28.40;;;;;;5036008;28;20180;-70
2022/11/21 03:30:31;;;;;;;2.87;0.70;;;23.90;28.50;;;;;;5043199;28;20180;-68
2022/11/21 03:32:59;;;;;;;1.60;0.80;;;24.30;28.10;;;;;;5048918;28;20563;-70
2022/11/21 03:35:26;;;;;;;3.50;0.90;;;24.00;28.30;;;;;;5038325;28;20183;-68
2022/11/21 03:37:54;;;;;;;1.57;0.60;;;23.80;28.30;;;;;;5046649;28;20195;-71
2022/11/21 03:40:22;;;;;;;2.97;0.90;;;23.80;28.90;;;;;;5045505;28;20194;-68
2022/11/21 03:42:49;;;;;;;4.00;1.00;;;24.00;28.80;;;;;;5045962;28;20658;-67
2022/11/21 03:45:16;;;;;;;2.47;0.70;;;23.70;28.70;;;;;;5046848;28;20216;-70
2022/11/21 03:47:44;;;;;;;4.60;0.67;;;23.40;29.00;;;;;;5041746;28;20188;-68
2022/11/21 03:50:13;;;;;;;3.30;0.90;;;23.80;29.00;;;;;;5050136;28;20184;-68
2022/11/21 03:52:41;;;;;;;1.07;0.70;;;24.30;28.80;;;;;;5044397;28;20573;-68
2022/11/21 03:55:09;;;;;;;1.93;0.70;;;23.80;30.20;;;;;;5038093;28;20788;-69
2022/11/21 03:57:36;;;;;;;1.63;0.70;;;23.70;30.70;;;;;;5038941;28;20185;-70
2022/11/21 04:00:04;;;;;;;2.30;0.60;;;23.70;31.40;;;;;;5039086;28;20259;-70
2022/11/21 04:02:31;;;;;;;3.90;0.80;;;24.10;30.90;;;;;;5051057;28;20176;-70
2022/11/21 04:04:58;;;;;;;2.03;0.70;;;24.00;29.60;;;;;;5033333;28;20195;-69
2022/11/21 04:07:26;;;;;;;2.57;0.70;;;23.70;30.30;;;;;;5035630;28;20692;-69
2022/11/21 04:09:53;;;;;;;2.80;0.67;;;22.80;32.50;;;;;;5041824;28;20667;-69
2022/11/21 04:12:21;;;;;;;3.93;0.90;;;22.50;33.60;;;;;;5033142;28;20693;-70
2022/11/21 04:14:48;;;;;;;1.60;0.70;;;23.40;31.30;;;;;;5048385;28;20199;-66
2022/11/21 04:17:15;;;;;;;4.37;0.70;;;23.50;31.30;;;;;;5042273;28;20173;-68
2022/11/21 04:19:43;;;;;;;2.30;0.90;;;24.00;30.60;;;;;;5038481;28;20200;-70
2022/11/21 04:22:10;;;;;;;3.23;0.90;;;23.70;31.00;;;;;;5050544;28;20218;-70
2022/11/21 04:24:38;;;;;;;5.00;0.93;;;23.50;31.20;;;;;;5045613;28;20275;-69
2022/11/21 04:27:05;;;;;;;2.10;0.80;;;23.80;31.10;;;;;;5040592;28;20234;-69
2022/11/21 04:29:32;;;;;;;3.47;0.77;;;23.30;31.30;;;;;;5044227;28;20176;-72
2022/11/21 04:32:00;;;;;;;3.80;0.80;;;23.80;30.40;;;;;;5044378;28;20171;-70
2022/11/21 04:34:27;;;;;;;1.67;0.70;;;24.70;28.70;;;;;;5045129;28;20212;-69
2022/11/21 04:36:55;;;;;;;1.57;0.70;;;24.10;29.30;;;;;;5044380;28;20765;-68
2022/11/21 04:39:22;;;;;;;4.40;0.70;;;23.50;30.70;;;;;;5045349;28;20208;-69
2022/11/21 04:41:50;;;;;;;1.93;0.80;;;23.60;30.30;;;;;;5045862;28;20191;-68
2022/11/21 04:44:17;;;;;;;1.27;0.40;;;23.40;30.90;;;;;;5038559;28;20168;-70
2022/11/21 04:46:45;;;;;;;4.37;0.70;;;23.90;30.20;;;;;;5036533;28;20232;-70
2022/11/21 04:49:13;;;;;;;4.80;0.73;;;23.70;28.50;;;;;;5035503;28;20176;-68
2022/11/21 04:51:40;;;;;;;3.90;0.63;;;23.40;28.80;;;;;;5044061;28;20310;-70
2022/11/21 04:54:07;;;;;;;3.23;0.90;;;23.10;29.60;;;;;;5041588;28;20704;-68
2022/11/21 04:56:36;;;;;;;5.30;1.27;;;23.10;28.60;;;;;;5047168;28;20171;-67
2022/11/21 04:59:03;;;;;;;3.37;0.60;;;23.50;28.80;;;;;;5049491;28;20176;-70
2022/11/21 05:01:30;;;;;;;3.90;0.70;;;23.20;29.50;;;;;;5049762;28;20266;-70
2022/11/21 05:03:58;;;;;;;1.93;0.70;;;23.80;28.80;;;;;;5048197;28;20245;-69
2022/11/21 05:06:25;;;;;;;3.83;0.83;;;23.70;28.30;;;;;;5043995;28;20191;-70
2022/11/21 05:08:52;;;;;;;2.10;0.80;;;24.80;27.50;;;;;;5031224;28;20193;-72
2022/11/21 05:14:06;;;;;;;1.00;0.50;;;24.00;28.90;;;;;;5034687;28;20843;-69
2022/11/21 05:16:34;;;;;;;3.13;0.90;;;22.70;30.80;;;;;;5043263;28;20191;-69
2022/11/21 05:19:01;;;;;;;1.77;0.73;;;23.10;29.90;;;;;;5041760;28;20177;-71
2022/11/21 05:21:28;;;;;;;4.07;0.60;;;23.20;28.40;;;;;;5045894;28;20341;-68
2022/11/21 05:23:56;;;;;;;1.33;0.60;;;22.90;28.70;;;;;;5048734;28;20180;-69
2022/11/21 05:26:23;;;;;;;1.13;0.53;;;22.60;29.30;;;;;;5057633;28;20188;-70
2022/11/21 05:28:51;;;;;;;1.77;0.63;;;21.90;30.10;;;;;;5048624;28;20184;-70
2022/11/21 05:31:18;;;;;;;3.20;1.03;;;22.20;28.10;;;;;;5046459;28;20194;-69
2022/11/21 05:33:45;;;;;;;3.40;0.90;;;23.00;27.30;;;;;;5045339;28;20214;-70
2022/11/21 05:36:13;;;;;;;5.77;1.10;;;23.50;27.10;;;;;;5038502;28;20181;-69
2022/11/21 05:38:40;;;;;;;4.13;0.87;;;23.00;27.60;;;;;;5030239;28;20223;-68
2022/11/21 05:41:08;;;;;;;3.70;0.87;;;22.50;28.70;;;;;;5045973;28;20217;-68
2022/11/21 05:43:47;;;;;;;8.03;1.47;;;22.80;28.40;;;;;;5050702;28;20183;-69
2022/11/21 05:46:20;;;;;;;4.20;0.87;;;22.90;28.80;;;;;;5048312;28;20227;-69
2022/11/21 05:48:49;;;;;;;5.87;0.90;;;22.90;27.80;;;;;;5050500;28;20835;-69
2022/11/21 05:51:17;;;;;;;3.57;0.87;;;23.80;26.40;;;;;;5049066;28;20176;-69
2022/11/21 05:53:45;;;;;;;1.47;0.70;;;23.10;27.10;;;;;;5058227;28;20220;-71
2022/11/21 05:56:15;;;;;;;2.03;0.60;;;22.80;27.40;;;;;;5055071;28;20266;-68
2022/11/21 05:58:43;;;;;;;4.40;0.90;;;23.20;26.90;;;;;;5052827;28;20199;-69
2022/11/21 06:01:13;;;;;;;7.03;0.70;;;23.50;27.30;;;;;;5048846;28;20194;-71
2022/11/21 06:03:42;;;;;;;2.73;0.70;;;23.70;26.90;;;;;;5042759;28;20191;-69
2022/11/21 06:06:14;;;;;;;3.20;0.90;;;23.70;26.50;;;;;;5042704;28;20636;-69
2022/11/21 06:08:46;;;;;;;1.63;0.73;;;24.10;26.00;;;;;;5049908;28;20188;-69
2022/11/21 06:11:15;;;;;;;2.10;0.83;;;23.60;26.20;;;;;;5049039;28;20180;-69
2022/11/21 06:13:43;;;;;;;1.77;0.73;;;23.20;26.50;;;;;;5045842;28;20215;-69
2022/11/21 06:16:15;;;;;;;2.60;0.80;;;23.20;26.70;;;;;;5046411;28;20192;-69
2022/11/21 06:18:45;;;;;;;2.60;1.10;;;23.50;25.80;;;;;;5037415;28;20216;-68
2022/11/21 06:21:18;;;;;;;5.40;0.90;;;23.40;25.90;;;;;;5040842;28;20196;-71
2022/11/21 06:23:46;;;;;;;3.83;1.10;;;24.10;25.80;;;;;;5037072;28;20302;-68
2022/11/21 06:26:19;;;;;;;2.53;0.67;;;23.40;25.40;;;;;;5048712;28;20179;-69
2022/11/21 06:28:47;;;;;;;2.03;0.63;;;23.50;25.40;;;;;;5049855;28;20179;-70
2022/11/21 06:31:20;;;;;;;2.17;0.70;;;23.30;25.70;;;;;;5049213;28;20222;-67
2022/11/21 06:33:51;;;;;;;3.53;0.80;;;23.50;25.10;;;;;;5047923;28;20258;-67
2022/11/21 06:36:18;;;;;;;2.80;0.83;;;23.10;25.80;;;;;;5056626;28;20627;-71
2022/11/21 06:38:46;;;;;;;3.53;0.80;;;23.30;26.30;;;;;;5045820;28;20242;-67
2022/11/21 06:41:25;;;;;;;5.37;1.00;;;23.10;26.20;;;;;;5049669;28;20179;-68
2022/11/21 06:43:52;;;;;;;2.27;0.90;;;23.20;25.40;;;;;;5042746;28;20182;-67
2022/11/21 06:46:20;;;;;;;1.77;0.77;;;23.00;26.00;;;;;;5041132;28;20237;-69
2022/11/21 06:48:47;;;;;;;1.47;0.53;;;23.30;26.10;;;;;;5047716;28;20666;-68
2022/11/21 06:51:20;;;;;;;3.37;0.80;;;23.20;26.00;;;;;;5039559;28;20250;-69
2022/11/21 06:53:55;;;;;;;6.07;0.90;;;22.90;26.70;;;;;;5051139;28;20265;-70
2022/11/21 06:56:25;;;;;;;1.77;0.83;;;22.80;26.90;;;;;;5037053;28;20697;-68
2022/11/21 06:58:52;;;;;;;2.67;0.97;;;22.80;26.00;;;;;;5049770;28;20203;-67
2022/11/21 07:01:20;;;;;;;2.10;1.10;;;22.80;26.10;;;;;;5043881;28;20180;-69
2022/11/21 07:03:47;;;;;;;2.00;1.00;;;22.80;25.80;;;;;;5036883;28;20212;-68
2022/11/21 07:06:15;;;;;;;3.20;0.80;;;22.70;26.20;;;;;;5043348;28;20184;-70
2022/11/21 07:08:42;;;;;;;5.13;1.00;;;22.40;26.60;;;;;;5048190;28;20548;-68
2022/11/21 07:11:12;;;;;;;3.40;0.80;;;22.00;27.50;;;;;;5043667;28;20180;-67
2022/11/21 07:13:42;;;;;;;4.70;1.20;;;21.60;28.00;;;;;;5034202;28;20299;-67
2022/11/21 07:16:14;;;;;;;1.90;0.80;;;21.50;28.40;;;;;;5039571;28;20188;-70
2022/11/21 07:18:44;;;;;;;2.30;0.83;;;21.80;27.50;;;;;;5034640;28;20184;-70
2022/11/21 07:21:12;;;;;;;3.27;0.90;;;21.80;27.50;;;;;;5034214;28;20177;-71
2022/11/21 07:23:39;;;;;;;2.03;1.00;;;21.30;28.00;;;;;;5035377;28;20176;-70
2022/11/21 07:26:09;;;;;;;2.00;0.80;;;21.00;29.10;;;;;;5042056;28;20239;-71
2022/11/21 07:28:36;;;;;;;2.33;0.83;;;20.80;29.80;;;;;;5037863;28;20180;-70
2022/11/21 07:31:04;;;;;;;4.10;1.03;;;20.60;30.00;;;;;;5034424;28;20176;-71
2022/11/21 07:33:31;;;;;;;2.60;1.43;;;20.40;30.80;;;;;;5051475;28;20302;-68
2022/11/21 07:35:59;;;;;;;2.87;0.93;;;20.30;30.50;;;;;;5033906;28;20173;-69
2022/11/21 07:38:26;;;;;;;2.37;1.10;;;20.30;30.80;;;;;;5033968;28;20207;-68
2022/11/21 07:40:56;;;;;;;2.23;0.80;;;20.20;30.40;;;;;;5041853;28;20231;-68
2022/11/21 07:43:24;;;;;;;3.13;1.00;;;20.20;30.40;;;;;;5039203;28;20176;-69
2022/11/21 07:45:51;;;;;;;4.60;1.17;;;20.00;30.30;;;;;;5044198;28;20236;-68
2022/11/21 07:48:19;;;;;;;3.10;1.07;;;20.00;30.70;;;;;;5034135;28;20195;-71
2022/11/21 07:50:46;;;;;;;3.93;1.33;;;19.70;31.10;;;;;;5033832;28;20173;-71
2022/11/21 07:53:14;;;;;;;1.87;1.03;;;19.70;31.50;;;;;;5037198;28;20608;-71
2022/11/21 07:55:41;;;;;;;3.80;1.10;;;19.80;31.60;;;;;;5033774;28;20183;-70
2022/11/21 07:58:11;;;;;;;2.37;1.07;;;19.80;31.80;;;;;;5034717;28;20184;-70
2022/11/21 08:00:43;;;;;;;3.17;0.90;;;19.80;31.70;;;;;;5044252;28;20191;-69
2022/11/21 08:03:12;;;;;;;0.93;0.67;;;19.60;31.50;;;;;;5037251;28;20275;-72
2022/11/21 08:05:41;;;;;;;2.93;1.20;;;19.50;31.60;;;;;;5033538;28;20184;-70
2022/11/21 08:08:10;;;;;;;1.57;0.97;;;19.30;31.10;;;;;;5048881;28;20234;-72
2022/11/21 08:10:43;;;;;;;3.97;1.10;;;19.20;31.10;;;;;;5042452;28;20176;-68
2022/11/21 08:13:11;;;;;;;2.40;1.00;;;19.10;30.70;;;;;;5033129;28;20208;-70
2022/11/21 08:15:38;;;;;;;3.53;1.13;;;19.00;30.90;;;;;;5033146;28;20283;-73
2022/11/21 08:18:19;;;;;;;2.53;1.10;;;19.10;31.10;;;;;;5041310;28;20268;-68
2022/11/21 08:20:47;;;;;;;2.80;1.43;;;19.20;30.70;;;;;;5037917;28;20208;-71
2022/11/21 08:23:14;;;;;;;3.60;1.00;;;19.20;30.80;;;;;;5032661;28;20188;-69
2022/11/21 08:25:42;;;;;;;3.83;0.97;;;18.90;30.80;;;;;;5032878;28;20180;-70
2022/11/21 08:28:11;;;;;;;1.77;0.90;;;18.80;31.00;;;;;;5034284;28;20631;-68
2022/11/21 08:30:40;;;;;;;2.80;1.07;;;18.60;31.20;;;;;;5035918;28;20176;-67
2022/11/21 08:33:07;;;;;;;4.27;1.00;;;18.50;31.70;;;;;;5036913;28;20224;-72
2022/11/21 08:35:37;;;;;;;2.17;1.13;;;18.60;31.90;;;;;;5035525;28;20191;-71
2022/11/21 08:38:05;;;;;;;2.60;1.17;;;18.50;32.20;;;;;;5031805;28;20516;-69
2022/11/21 08:40:33;;;;;;;1.63;1.17;;;18.40;32.40;;;;;;5032219;28;20192;-68
2022/11/21 08:43:08;;;;;;;4.60;1.17;;;18.30;32.90;;;;;;5033006;28;20181;-70
2022/11/21 08:45:38;;;;;;;2.83;1.07;;;18.30;33.00;;;;;;5032533;28;20721;-71
2022/11/21 08:48:10;;;;;;;4.23;1.03;;;18.30;33.40;;;;;;5032764;28;20540;-69
2022/11/21 08:50:38;;;;;;;3.47;0.80;;;18.10;33.80;;;;;;5033229;28;20246;-68
2022/11/21 08:53:05;;;;;;;2.80;1.10;;;18.00;34.10;;;;;;5042866;28;20223;-71
2022/11/21 08:55:32;;;;;;;2.13;1.00;;;18.00;34.60;;;;;;5032706;28;20222;-73
2022/11/21 08:58:00;;;;;;;2.70;0.80;;;17.90;34.80;;;;;;5033758;28;20242;-71
2022/11/21 09:00:27;;;;;;;4.37;1.20;;;17.80;35.10;;;;;;5036349;28;20184;-69
2022/11/21 09:02:55;;;;;;;8.53;1.40;;;17.80;35.30;;;;;;5037238;28;20237;-70
2022/11/21 09:05:22;;;;;;;4.60;1.27;;;17.70;35.40;;;;;;5035577;28;20184;-70
2022/11/21 09:07:56;;;;;;;2.50;1.00;;;17.70;35.40;;;;;;5035793;28;20185;-67
2022/11/21 09:10:28;;;;;;;4.27;1.10;;;17.60;35.40;;;;;;5030305;28;20271;-70
2022/11/21 09:12:59;;;;;;;3.83;1.10;;;17.50;35.30;;;;;;5045321;28;20302;-70
2022/11/21 09:18:12;;;;;;;3.13;1.10;;;17.50;35.20;;;;;;5033166;28;20558;-68
2022/11/21 09:20:41;;;;;;;1.90;1.03;;;17.40;35.10;;;;;;5037837;28;20290;-69
2022/11/21 09:23:14;;;;;;;3.33;1.07;;;17.30;35.20;;;;;;5036651;28;20214;-70
2022/11/21 09:25:42;;;;;;;2.73;1.30;;;17.30;35.30;;;;;;5042609;28;20241;-69
2022/11/21 09:28:11;;;;;;;1.70;0.80;;;17.30;35.30;;;;;;5033484;28;20180;-69
2022/11/21 09:30:40;;;;;;;3.50;1.20;;;17.20;35.00;;;;;;5042867;28;20200;-69
2022/11/21 09:33:12;;;;;;;2.37;0.90;;;17.20;35.30;;;;;;5045812;28;20551;-68
2022/11/21 09:35:40;;;;;;;4.27;1.10;;;17.10;35.20;;;;;;5035607;28;20183;-68
2022/11/21 09:38:07;;;;;;;4.20;1.33;;;17.10;35.40;;;;;;5032024;28;20172;-70
2022/11/21 09:40:36;;;;;;;1.73;0.93;;;17.10;35.60;;;;;;5034628;28;20192;-68
2022/11/21 09:43:29;;;;;;;5.57;1.57;;;17.00;35.60;;;;;;5036936;28;20188;-68
2022/11/21 09:46:29;;;;;;;2.30;0.93;;;17.00;35.80;;;;;;5048324;28;20358;-69
2022/11/21 09:49:04;;;;;;;2.60;1.07;;;17.00;35.60;;;;;;5037116;28;20204;-70
2022/11/21 09:51:33;;;;;;;6.03;1.00;;;17.00;35.60;;;;;;5036492;28;20183;-70
2022/11/21 09:54:30;;;;;;;2.43;0.97;;;17.00;35.90;;;;;;5037856;28;20211;-70
2022/11/21 09:56:59;;;;;;;2.43;1.07;;;16.90;35.50;;;;;;5032296;28;20632;-70
2022/11/21 09:59:37;;;;;;;3.23;1.20;;;16.80;35.70;;;;;;5042831;28;20205;-67
2022/11/21 10:02:31;;;;;;;2.90;1.03;;;16.80;35.80;;;;;;5044033;28;20182;-70
2022/11/21 10:04:59;;;;;;;3.17;1.03;;;16.80;35.90;;;;;;5033804;28;20196;-70
2022/11/21 10:07:33;;;;;;;4.63;1.10;;;16.80;36.30;;;;;;5031601;28;20176;-67
2022/11/21 10:10:11;;;;;;;1.77;0.90;;;16.80;36.40;;;;;;5038277;28;20597;-67
2022/11/21 10:13:00;;;;;;;3.73;1.40;;;16.70;36.60;;;;;;5031905;28;20188;-67
2022/11/21 10:15:56;;;;;;;2.30;1.20;;;16.70;36.50;;;;;;5036848;28;20293;-67
2022/11/21 10:18:48;;;;;;;3.83;1.03;;;16.70;36.80;;;;;;5039994;28;20229;-68
2022/11/21 10:21:27;;;;;;;1.93;1.00;;;16.60;37.50;;;;;;5032767;28;20591;-69
2022/11/21 10:24:35;;;;;;;3.07;1.17;;;16.60;37.80;;;;;;5038163;28;20187;-68
2022/11/21 10:27:17;;;;;;;1.23;1.07;;;16.50;38.20;;;;;;5037818;28;20542;-69
2022/11/21 10:29:49;;;;;;;2.00;0.83;;;16.50;38.50;;;;;;5037901;28;20186;-68
2022/11/21 10:32:19;;;;;;;5.47;1.40;;;16.40;38.80;;;;;;5050673;28;20223;-67
2022/11/21 10:34:50;;;;;;;2.70;1.07;;;16.40;38.90;;;;;;5042571;28;20207;-69
2022/11/21 10:37:34;;;;;;;2.57;1.00;;;16.40;39.00;;;;;;5050088;28;20176;-67
2022/11/21 10:40:40;;;;;;;3.03;1.00;;;16.40;39.10;;;;;;5035398;28;20661;-68
2022/11/21 10:46:08;;;;;;;4.87;1.00;;;16.30;39.50;;;;;;5036434;28;20239;-67
2022/11/21 10:48:35;;;;;;;2.23;1.13;;;16.30;39.30;;;;;;5035050;28;20187;-68
2022/11/21 10:51:24;;;;;;;5.87;1.33;;;16.30;39.50;;;;;;5042599;28;20180;-68
2022/11/21 10:57:16;;;;;;;3.33;1.20;;;16.30;40.10;;;;;;5038578;28;20645;-68
2022/11/21 11:00:11;;;;;;;1.43;1.00;;;16.20;40.30;;;;;;5046352;28;20634;-68
2022/11/21 11:03:04;;;;;;;4.23;1.00;;;16.10;40.30;;;;;;5043354;28;20189;-69
2022/11/21 11:05:42;;;;;;;3.20;1.30;;;16.10;39.90;;;;;;5034630;28;20187;-69
2022/11/21 11:08:13;;;;;;;4.13;1.40;;;16.20;40.20;;;;;;5034323;28;20534;-69
2022/11/21 11:11:02;;;;;;;2.87;1.10;;;16.10;40.60;;;;;;5040712;28;20186;-68
2022/11/21 11:13:33;;;;;;;3.97;1.20;;;16.10;40.60;;;;;;5038852;28;20239;-68
2022/11/21 11:16:15;;;;;;;2.73;1.10;;;16.10;40.00;;;;;;5034356;28;20270;-69
2022/11/21 11:18:54;;;;;;;2.10;0.90;;;16.00;39.70;;;;;;5046834;28;20187;-70
2022/11/21 11:21:24;;;;;;;3.50;1.20;;;16.00;39.90;;;;;;5042318;28;20187;-70
2022/11/21 11:23:53;;;;;;;2.50;1.10;;;16.00;39.90;;;;;;5047558;28;20268;-67
2022/11/21 11:26:30;;;;;;;2.97;1.13;;;16.00;40.10;;;;;;5038647;28;20550;-70
2022/11/21 11:29:16;;;;;;;5.90;1.10;;;16.00;40.20;;;;;;5048142;28;20185;-67
2022/11/21 11:31:50;;;;;;;5.07;1.23;;;16.00;40.40;;;;;;5039733;28;20184;-68
2022/11/21 11:34:18;;;;;;;2.97;1.40;;;15.90;40.20;;;;;;5048228;28;20219;-70
2022/11/21 11:37:26;;;;;;;2.93;1.20;;;15.90;40.10;;;;;;5045521;28;20257;-68
2022/11/21 11:40:03;;;;;;;3.43;1.40;;;16.00;40.10;;;;;;5026486;28;20196;-68
2022/11/21 11:49:25;;;;;;;6.37;1.17;;;15.80;41.10;;;;;;5042505;28;20195;-70
2022/11/21 11:52:00;;;;;;;1.50;0.80;;;15.80;41.50;;;;;;5044604;28;20276;-71
2022/11/21 11:54:42;;;;;;;1.40;1.10;;;15.80;41.90;;;;;;5034222;28;20242;-67
2022/11/21 11:57:11;;;;;;;2.53;0.90;;;15.70;42.20;;;;;;5033866;28;20612;-71
2022/11/21 11:59:50;;;;;;;2.67;1.30;;;15.50;42.70;;;;;;5038897;28;20616;-68
2022/11/21 12:02:51;;;;;;;2.13;0.90;;;15.40;43.40;;;;;;5052459;28;20245;-68
2022/11/21 12:05:27;;;;;;;3.10;0.97;;;15.30;44.00;;;;;;5034445;28;20173;-68
2022/11/21 12:08:26;;;;;;;2.33;1.20;;;15.20;44.60;;;;;;5033378;28;20184;-68
2022/11/21 12:18:03;;;;;;;2.13;0.90;;;14.90;46.10;;;;;;5035425;28;20680;-70
2022/11/21 12:20:42;;;;;;;4.30;0.93;;;14.80;46.50;;;;;;5033577;28;20179;-69
2022/11/21 12:23:11;;;;;;;3.00;1.07;;;14.80;46.90;;;;;;5033182;28;20227;-67
2022/11/21 12:25:52;;;;;;;1.77;0.90;;;14.80;47.10;;;;;;5033258;28;20189;-68
2022/11/21 12:28:54;;;;;;;2.30;0.90;;;14.80;47.00;;;;;;5035827;28;20595;-68
2022/11/21 12:31:30;;;;;;;1.23;0.90;;;14.80;46.40;;;;;;5049012;28;20657;-70
2022/11/21 12:34:28;;;;;;;1.60;1.00;;;14.80;46.00;;;;;;5046699;28;20208;-69
2022/11/21 12:37:18;;;;;;;2.03;0.90;;;14.70;45.30;;;;;;5043970;28;20183;-68
2022/11/21 12:40:07;;;;;;;2.43;0.90;;;14.70;45.40;;;;;;5036942;28;20194;-69
2022/11/21 12:43:08;;;;;;;1.63;1.00;;;14.60;45.50;;;;;;5033631;28;20180;-68
2022/11/21 12:45:51;;;;;;;2.97;1.00;;;14.50;45.80;;;;;;5034418;28;20218;-69
2022/11/21 12:54:43;;;;;;;1.73;0.80;;;14.30;47.30;;;;;;5038211;28;20242;-67
2022/11/21 12:57:16;;;;;;;4.43;1.00;;;14.10;47.90;;;;;;5032620;28;20173;-70
2022/11/21 13:00:01;;;;;;;2.07;0.90;;;14.20;48.40;;;;;;5046772;28;20180;-69
2022/11/21 13:02:37;;;;;;;3.97;1.07;;;14.10;48.50;;;;;;5041108;28;20511;-70
2022/11/21 13:05:09;;;;;;;3.57;1.03;;;14.00;48.90;;;;;;5032837;28;20670;-70
2022/11/21 13:07:38;;;;;;;3.00;1.07;;;14.00;49.30;;;;;;5044136;28;20184;-68
2022/11/21 13:10:11;;;;;;;3.60;1.00;;;13.90;49.50;;;;;;5032906;28;20175;-69
2022/11/21 13:13:23;;;;;;;1.07;0.80;;;13.90;49.60;;;;;;5032746;28;20677;-70
2022/11/21 13:16:11;;;;;;;1.43;0.87;;;13.90;49.80;;;;;;5032661;28;20214;-67
2022/11/21 13:18:47;;;;;;;2.60;0.87;;;13.80;49.80;;;;;;5032661;28;20176;-68
2022/11/21 13:21:41;;;;;;;2.50;1.20;;;13.80;50.00;;;;;;5032457;28;20238;-71
2022/11/21 13:24:09;;;;;;;3.30;1.10;;;13.80;50.10;;;;;;5032118;28;20192;-70
2022/11/21 13:26:37;;;;;;;1.50;0.83;;;13.80;50.20;;;;;;5033036;28;20188;-71
2022/11/21 13:29:14;;;;;;;3.63;1.10;;;13.80;50.10;;;;;;5042939;28;20184;-72
2022/11/21 13:31:42;;;;;;;2.27;1.00;;;13.80;50.40;;;;;;5048877;28;20181;-72
2022/11/21 13:34:31;;;;;;;2.07;1.27;;;13.80;50.50;;;;;;5032610;28;20223;-68
2022/11/21 13:36:59;;;;;;;1.20;0.80;;;13.80;50.80;;;;;;5032743;28;20180;-72
2022/11/21 13:39:31;;;;;;;1.70;0.83;;;13.70;50.80;;;;;;5032615;28;20677;-72
2022/11/21 13:44:54;;;;;;;2.57;0.90;;;13.60;51.10;;;;;;5038854;28;20203;-73
2022/11/21 13:47:45;;;;;;;4.23;1.03;;;13.60;51.40;;;;;;5032245;28;20200;-71
2022/11/21 13:50:37;;;;;;;2.87;0.90;;;13.50;51.70;;;;;;5050109;28;20797;-68